Time;durP1;ratioP1;P1;durP2;ratioP2;P2;SDS_P1;SDS_P2;PMS_P1;PMS_P2;Temp;Humidity;BMP_temperature;BMP_pressure;BME280_temperature;BME280_humidity;BME280_pressure;Samples;Min_cycle;Max_cycle;Signal;HPM_P1;HPM_P2
2021/06/27 00:25:38;;;;;;;11.25;3.50;;;;;;;;;;5075026;28;20129;-60
2021/06/27 00:28:05;;;;;;;9.20;3.30;;;;;;;;;;5081131;28;20059;-60
2021/06/27 00:30:33;;;;;;;7.30;3.50;;;;;;;;;;5074353;28;20480;-61
2021/06/27 00:33:01;;;;;;;8.00;3.10;;;;;;;;;;5072601;28;20037;-60
2021/06/27 00:35:28;;;;;;;9.25;3.10;;;;;;;;;;5077507;28;20044;-61
2021/06/27 00:37:55;;;;;;;10.85;3.38;;;;;;;;;;5072486;28;20061;-60
2021/06/27 00:40:23;;;;;;;12.02;3.00;;;;;;;;;;5076187;28;20045;-61
2021/06/27 00:42:52;;;;;;;7.75;3.00;;;;;;;;;;5069674;28;20144;-60
2021/06/27 01:25:36;;;;;;;5.90;2.80;;;;;;;;;;5073483;28;20481;-60
2021/06/27 01:28:03;;;;;;;10.15;2.75;;;;;;;;;;5061509;28;20485;-60
2021/06/27 02:25:34;;;;;;;14.30;4.80;;;;;;;;;;5055034;28;20407;-60
2021/06/27 02:28:00;;;;;;;13.00;4.27;;;;;;;;;;5040762;28;20076;-60
2021/06/27 02:30:27;;;;;;;11.32;3.72;;;;;;;;;;5042409;28;20045;-60
2021/06/27 02:32:54;;;;;;;7.55;3.65;;;;;;;;;;5041823;28;20820;-60
2021/06/27 02:35:22;;;;;;;17.63;3.93;;;;;;;;;;5040543;28;20508;-60
2021/06/27 03:26:33;;;;;;;12.38;4.07;;;;;;;;;;5056074;28;20765;-60
2021/06/27 03:28:59;;;;;;;12.70;4.30;;;;;;;;;;5040457;28;20552;-60
2021/06/27 03:31:26;;;;;;;10.60;4.63;;;;;;;;;;5035922;28;20048;-60
2021/06/27 04:26:34;;;;;;;12.88;4.53;;;;;;;;;;5066773;28;20131;-60
2021/06/27 04:29:02;;;;;;;12.23;4.80;;;;;;;;;;5083707;28;20539;-60
2021/06/27 06:26:34;;;;;;;17.90;6.40;;;;;;;;;;5050743;28;20466;-60
2021/06/27 08:27:37;;;;;;;16.48;6.15;;;;;;;;;;5076179;27;20419;-60
2021/06/27 08:30:04;;;;;;;;;;;;;;;;;;5071762;28;20550;-61
2021/06/27 08:32:31;;;;;;;16.17;6.38;;;;;;;;;;5074711;28;19928;-61
2021/06/27 08:34:58;;;;;;;12.63;5.75;;;;;;;;;;5072938;28;20044;-61
2021/06/27 08:37:24;;;;;;;13.63;5.75;;;;;;;;;;5076499;28;20051;-61
2021/06/27 08:39:51;;;;;;;10.63;5.78;;;;;;;;;;5075373;28;20086;-61
2021/06/27 08:42:19;;;;;;;20.25;5.85;;;;;;;;;;5074321;28;20052;-61
2021/06/27 09:27:37;;;;;;;12.32;5.32;;;;;;;;;;5059266;28;20394;-60
2021/06/27 09:30:12;;;;;;;15.00;5.78;;;;;;;;;;5043768;28;20408;-60
2021/06/27 09:32:49;;;;;;;12.65;4.78;;;;;;;;;;5044258;28;20103;-61
2021/06/27 09:35:33;;;;;;;13.93;5.20;;;;;;;;;;5043265;28;20484;-61
2021/06/27 09:38:20;;;;;;;11.82;4.88;;;;;;;;;;5022079;28;20135;-60
2021/06/27 09:40:48;;;;;;;10.10;4.63;;;;;;;;;;5016254;28;20077;-61
2021/06/27 09:43:15;;;;;;;18.73;5.97;;;;;;;;;;5022519;28;20451;-61
2021/06/27 09:45:46;;;;;;;12.87;5.60;;;;;;;;;;5024667;28;20046;-61
2021/06/27 09:48:12;;;;;;;11.98;5.15;;;;;;;;;;5022136;28;20042;-61
2021/06/27 09:50:39;;;;;;;13.95;5.53;;;;;;;;;;5024728;28;20511;-61
2021/06/27 09:53:06;;;;;;;17.60;6.18;;;;;;;;;;5023389;28;20046;-60
2021/06/27 09:55:32;;;;;;;12.98;5.65;;;;;;;;;;5024130;28;20124;-61
2021/06/27 09:58:12;;;;;;;13.53;7.37;;;;;;;;;;5020292;28;20050;-61
2021/06/27 10:00:40;;;;;;;10.60;7.45;;;;;;;;;;5025738;28;20045;-61
2021/06/27 10:03:10;;;;;;;12.23;7.18;;;;;;;;;;5023751;28;20124;-61
2021/06/27 10:05:36;;;;;;;9.18;6.80;;;;;;;;;;5024703;28;20104;-61
2021/06/27 10:08:03;;;;;;;11.37;7.43;;;;;;;;;;5023681;28;20088;-62
2021/06/27 10:10:30;;;;;;;11.23;6.72;;;;;;;;;;5018088;28;20640;-61
2021/06/27 10:12:57;;;;;;;9.23;6.50;;;;;;;;;;5025232;28;20523;-61
2021/06/27 10:15:24;;;;;;;11.90;6.15;;;;;;;;;;5022873;28;20044;-61
2021/06/27 10:17:51;;;;;;;9.88;5.57;;;;;;;;;;5024318;28;20076;-61
2021/06/27 10:20:18;;;;;;;13.43;5.93;;;;;;;;;;5025668;28;20040;-61
2021/06/27 10:22:45;;;;;;;16.55;6.45;;;;;;;;;;5026173;28;20111;-61
2021/06/27 10:25:13;;;;;;;15.30;7.63;;;;;;;;;;5025442;28;20604;-61
2021/06/27 10:27:40;;;;;;;13.95;10.38;;;;;;;;;;5022776;28;20057;-61
2021/06/27 10:30:08;;;;;;;12.13;9.43;;;;;;;;;;5021379;28;20398;-61
2021/06/27 10:32:39;;;;;;;13.13;8.30;;;;;;;;;;5025303;28;20046;-61
2021/06/27 10:35:07;;;;;;;11.55;8.20;;;;;;;;;;5025480;28;20033;-61
2021/06/27 10:37:38;;;;;;;13.18;8.68;;;;;;;;;;5018014;28;20061;-61
2021/06/27 10:40:05;;;;;;;14.00;10.07;;;;;;;;;;5010654;28;20458;-61
2021/06/27 10:42:47;;;;;;;13.95;9.93;;;;;;;;;;5008708;28;20046;-61
2021/06/27 10:45:14;;;;;;;15.25;9.60;;;;;;;;;;5008900;28;20147;-61
2021/06/27 10:47:41;;;;;;;24.35;10.55;;;;;;;;;;5008643;28;20386;-61
2021/06/27 10:50:08;;;;;;;14.15;10.98;;;;;;;;;;5011074;28;20046;-61
2021/06/27 10:52:50;;;;;;;15.27;11.63;;;;;;;;;;5012656;28;20049;-61
2021/06/27 10:55:19;;;;;;;16.77;10.90;;;;;;;;;;5003565;28;20077;-61
2021/06/27 10:57:55;;;;;;;14.98;11.73;;;;;;;;;;5007676;28;20038;-61
2021/06/27 11:00:23;;;;;;;14.48;11.18;;;;;;;;;;5011884;28;20073;-61
2021/06/27 11:02:53;;;;;;;18.25;12.63;;;;;;;;;;5010279;28;20038;-61
2021/06/27 11:05:25;;;;;;;12.85;10.32;;;;;;;;;;5010131;28;20050;-61
2021/06/27 11:07:52;;;;;;;14.18;10.45;;;;;;;;;;5009766;28;20042;-61
2021/06/27 11:10:22;;;;;;;15.07;9.43;;;;;;;;;;5009978;28;20042;-61
2021/06/27 11:12:54;;;;;;;15.38;9.68;;;;;;;;;;5007809;28;20054;-61
2021/06/27 11:15:22;;;;;;;9.82;7.90;;;;;;;;;;5005011;28;20045;-61
2021/06/27 11:17:53;;;;;;;12.00;6.65;;;;;;;;;;5006345;28;20042;-61
2021/06/27 11:20:19;;;;;;;10.75;5.97;;;;;;;;;;5006225;28;20541;-61
2021/06/27 11:22:48;;;;;;;8.73;6.80;;;;;;;;;;5008881;28;20133;-61
2021/06/27 11:25:15;;;;;;;;;;;;;;;;;;5008848;28;20397;-62
2021/06/27 11:27:44;;;;;;;10.85;8.05;;;;;;;;;;5009634;28;20018;-61
2021/06/27 11:30:29;;;;;;;11.20;8.02;;;;;;;;;;5010915;28;20034;-61
2021/06/27 11:32:56;;;;;;;11.80;9.00;;;;;;;;;;5011025;28;20046;-61
2021/06/27 11:35:34;;;;;;;15.60;10.55;;;;;;;;;;5010565;28;20037;-61
2021/06/27 11:38:02;;;;;;;12.70;9.30;;;;;;;;;;5010227;28;20046;-61
2021/06/27 11:40:40;;;;;;;13.02;10.25;;;;;;;;;;5004744;28;20394;-61
2021/06/27 11:43:07;;;;;;;14.82;10.82;;;;;;;;;;5010176;28;20509;-61
2021/06/27 11:45:34;;;;;;;;;;;;;;;;;;5005378;28;20474;-61
2021/06/27 11:48:05;;;;;;;17.45;9.02;;;;;;;;;;5006861;28;20260;-61
2021/06/27 11:50:33;;;;;;;13.50;7.55;;;;;;;;;;5004220;28;20042;-61
2021/06/27 11:52:59;;;;;;;;;;;;;;;;;;5010985;28;20045;-61
2021/06/27 11:55:27;;;;;;;17.85;8.95;;;;;;;;;;5007249;28;20344;-61
2021/06/27 11:57:53;;;;;;;11.63;8.80;;;;;;;;;;5008361;28;20046;-61
2021/06/27 12:00:20;;;;;;;10.65;7.80;;;;;;;;;;5009476;28;20038;-61
2021/06/27 12:02:47;;;;;;;12.75;7.93;;;;;;;;;;5006402;28;20054;-61
2021/06/27 12:05:15;;;;;;;12.27;6.53;;;;;;;;;;5007264;28;20113;-61
2021/06/27 12:07:43;;;;;;;8.07;6.95;;;;;;;;;;5017521;28;20046;-61
2021/06/27 12:10:10;;;;;;;14.55;7.53;;;;;;;;;;5008808;28;20113;-61
2021/06/27 12:12:59;;;;;;;12.60;7.50;;;;;;;;;;5005932;28;20045;-61
2021/06/27 12:15:28;;;;;;;11.27;8.15;;;;;;;;;;5004984;28;20293;-61
2021/06/27 12:17:57;;;;;;;10.60;7.57;;;;;;;;;;5007137;28;20045;-61
2021/06/27 12:20:24;;;;;;;15.93;8.98;;;;;;;;;;5007398;28;20045;-61
2021/06/27 12:28:37;;;;;;;14.38;8.82;;;;;;;;;;5048397;28;20438;-61
2021/06/27 13:28:39;;;;;;;13.95;8.75;;;;;;;;;;5047031;28;21048;-60
2021/06/27 13:31:09;;;;;;;12.48;8.80;;;;;;;;;;5030317;28;20046;-60
2021/06/27 13:33:36;;;;;;;13.70;10.05;;;;;;;;;;5043396;28;20048;-61
2021/06/27 13:36:07;;;;;;;11.77;9.00;;;;;;;;;;5034024;28;20038;-61
2021/06/27 13:38:37;;;;;;;12.38;8.13;;;;;;;;;;5039806;28;20053;-61
2021/06/27 13:41:04;;;;;;;14.02;7.57;;;;;;;;;;5033407;28;20103;-61
2021/06/27 13:43:31;;;;;;;13.32;8.75;;;;;;;;;;5034644;28;20119;-61
2021/06/27 13:45:58;;;;;;;15.45;9.55;;;;;;;;;;5039689;28;20038;-61
2021/06/27 13:48:25;;;;;;;13.90;8.50;;;;;;;;;;5039699;28;20061;-61
2021/06/27 13:50:53;;;;;;;13.50;9.40;;;;;;;;;;5032158;28;20046;-61
2021/06/27 13:53:20;;;;;;;13.77;9.95;;;;;;;;;;5033953;28;20523;-61
2021/06/27 13:55:46;;;;;;;15.50;8.00;;;;;;;;;;5035812;28;20576;-61
2021/06/27 13:58:13;;;;;;;14.57;8.93;;;;;;;;;;5034834;28;20296;-61
2021/06/27 14:00:40;;;;;;;16.53;8.77;;;;;;;;;;5033315;28;20049;-61
2021/06/27 14:03:08;;;;;;;17.88;9.30;;;;;;;;;;5034811;28;20465;-61
2021/06/27 14:05:34;;;;;;;9.25;7.53;;;;;;;;;;5029829;28;20048;-61
2021/06/27 14:08:02;;;;;;;13.23;8.32;;;;;;;;;;5032525;28;20068;-61
2021/06/27 14:10:28;;;;;;;12.50;7.07;;;;;;;;;;5034284;28;20045;-61
2021/06/27 14:12:57;;;;;;;15.07;8.32;;;;;;;;;;5035694;28;20038;-61
2021/06/27 14:15:23;;;;;;;15.82;7.45;;;;;;;;;;5033192;28;20052;-61
2021/06/27 14:17:53;;;;;;;10.93;7.67;;;;;;;;;;5034164;28;20073;-61
2021/06/27 14:20:21;;;;;;;12.82;8.30;;;;;;;;;;5035785;28;20064;-62
2021/06/27 14:22:47;;;;;;;13.55;6.95;;;;;;;;;;5031431;28;20489;-62
2021/06/27 14:25:20;;;;;;;14.35;7.18;;;;;;;;;;5036253;28;20041;-61
2021/06/27 14:27:47;;;;;;;10.75;6.70;;;;;;;;;;5029328;28;20525;-61
2021/06/27 14:30:14;;;;;;;15.05;7.43;;;;;;;;;;5034087;28;20045;-61
2021/06/27 14:32:41;;;;;;;10.90;6.60;;;;;;;;;;5033988;28;20049;-61
2021/06/27 14:35:10;;;;;;;12.10;7.87;;;;;;;;;;5034100;28;20041;-61
2021/06/27 14:37:41;;;;;;;10.98;7.03;;;;;;;;;;5031722;28;20300;-61
2021/06/27 14:40:10;;;;;;;15.07;7.57;;;;;;;;;;5021879;28;20070;-61
2021/06/27 14:42:37;;;;;;;13.52;7.57;;;;;;;;;;5016816;28;20054;-61
2021/06/27 14:45:04;;;;;;;11.02;6.97;;;;;;;;;;5017926;28;20412;-61
2021/06/27 14:47:31;;;;;;;10.75;7.05;;;;;;;;;;5021719;28;20052;-61
2021/06/27 14:49:58;;;;;;;10.43;7.30;;;;;;;;;;5018167;28;20068;-62
2021/06/27 14:52:24;;;;;;;15.80;7.00;;;;;;;;;;5018281;28;20642;-61
2021/06/27 14:54:51;;;;;;;13.05;7.10;;;;;;;;;;5018280;28;20460;-62
2021/06/27 14:57:18;;;;;;;12.07;6.60;;;;;;;;;;5018954;28;20037;-61
2021/06/27 14:59:45;;;;;;;9.30;6.38;;;;;;;;;;5023174;28;20049;-61
2021/06/27 15:02:12;;;;;;;13.10;6.63;;;;;;;;;;5015802;28;20045;-61
2021/06/27 15:04:39;;;;;;;13.77;5.78;;;;;;;;;;5022185;28;20049;-61
2021/06/27 15:07:05;;;;;;;11.80;5.80;;;;;;;;;;5022148;28;20053;-61
2021/06/27 15:09:35;;;;;;;12.02;5.30;;;;;;;;;;5020203;28;20041;-61
2021/06/27 15:12:03;;;;;;;11.98;5.70;;;;;;;;;;5015933;28;20117;-61
2021/06/27 15:14:30;;;;;;;10.10;5.28;;;;;;;;;;5023481;28;20061;-61
2021/06/27 15:16:59;;;;;;;10.18;5.68;;;;;;;;;;5018963;28;20044;-61
2021/06/27 15:19:26;;;;;;;11.85;5.95;;;;;;;;;;5018876;28;20069;-61
2021/06/27 15:21:52;;;;;;;9.93;5.20;;;;;;;;;;5022566;28;20056;-62
2021/06/27 15:24:19;;;;;;;9.55;6.00;;;;;;;;;;5019691;28;20089;-61
2021/06/27 15:26:45;;;;;;;12.30;5.68;;;;;;;;;;5016524;28;20216;-61
2021/06/27 15:29:13;;;;;;;;;;;;;;;;;;5015865;28;20443;-62
2021/06/27 15:31:39;;;;;;;14.07;6.20;;;;;;;;;;5022357;28;19943;-61
2021/06/27 15:34:08;;;;;;;13.77;5.75;;;;;;;;;;5019018;28;20034;-62
2021/06/27 15:36:34;;;;;;;12.27;6.00;;;;;;;;;;5018780;28;20044;-61
2021/06/27 15:39:03;;;;;;;11.63;5.60;;;;;;;;;;5022365;28;20451;-61
2021/06/27 15:41:30;;;;;;;15.50;5.97;;;;;;;;;;5021688;28;20445;-61
2021/06/27 15:43:57;;;;;;;13.15;5.25;;;;;;;;;;5018584;28;20097;-61
2021/06/27 15:46:29;;;;;;;8.85;5.10;;;;;;;;;;5013246;28;20507;-61
2021/06/27 15:48:56;;;;;;;13.77;5.75;;;;;;;;;;5022547;28;20041;-61
2021/06/27 15:51:24;;;;;;;10.57;4.50;;;;;;;;;;5019028;28;20042;-61
2021/06/27 15:53:57;;;;;;;8.80;5.13;;;;;;;;;;5014084;28;20120;-61
2021/06/27 15:56:23;;;;;;;11.98;4.78;;;;;;;;;;5018699;28;20041;-62
2021/06/27 15:59:10;;;;;;;7.63;4.75;;;;;;;;;;5017937;28;20063;-61
2021/06/27 16:01:36;;;;;;;8.57;3.97;;;;;;;;;;5018557;28;20516;-59
2021/06/27 16:04:03;;;;;;;10.35;4.55;;;;;;;;;;5016455;28;20649;-59
2021/06/27 16:06:30;;;;;;;10.97;4.50;;;;;;;;;;5017167;28;20061;-59
2021/06/27 16:08:59;;;;;;;9.77;4.72;;;;;;;;;;5018428;28;20099;-59
2021/06/27 16:11:26;;;;;;;15.83;4.57;;;;;;;;;;5019580;28;20052;-59
2021/06/27 16:13:53;;;;;;;9.27;4.38;;;;;;;;;;5017051;28;20130;-59
2021/06/27 16:16:19;;;;;;;12.18;4.35;;;;;;;;;;5014945;28;20041;-59
2021/06/27 16:18:50;;;;;;;12.25;4.45;;;;;;;;;;5023112;28;20132;-59
2021/06/27 16:21:20;;;;;;;9.20;4.30;;;;;;;;;;5022849;28;20052;-60
2021/06/27 16:23:50;;;;;;;12.73;4.03;;;;;;;;;;5023051;28;20041;-59
2021/06/27 16:26:20;;;;;;;9.82;4.18;;;;;;;;;;5021237;28;20053;-59
2021/06/27 16:28:47;;;;;;;9.75;4.25;;;;;;;;;;5016830;28;20104;-59
2021/06/27 16:31:15;;;;;;;8.40;4.18;;;;;;;;;;5017897;28;20052;-59
2021/06/27 16:33:42;;;;;;;11.23;4.30;;;;;;;;;;5024285;28;20394;-59
2021/06/27 16:36:08;;;;;;;14.27;4.60;;;;;;;;;;5015219;28;20803;-59
2021/06/27 16:38:35;;;;;;;11.13;4.50;;;;;;;;;;5023797;28;20084;-59
2021/06/27 16:41:01;;;;;;;14.25;4.60;;;;;;;;;;5019328;28;20478;-60
2021/06/27 16:43:29;;;;;;;11.93;4.57;;;;;;;;;;5020621;28;20046;-59
2021/06/27 16:45:56;;;;;;;10.57;3.90;;;;;;;;;;5014748;28;20045;-59
2021/06/27 16:48:23;;;;;;;10.57;4.28;;;;;;;;;;5021520;28;20073;-59
2021/06/27 16:50:50;;;;;;;10.80;4.22;;;;;;;;;;5019159;28;20160;-59
2021/06/27 16:53:17;;;;;;;13.25;4.85;;;;;;;;;;5017485;28;20038;-62
2021/06/27 16:55:44;;;;;;;10.55;4.53;;;;;;;;;;5016259;28;20546;-62
2021/06/27 16:58:10;;;;;;;10.30;4.50;;;;;;;;;;5013804;28;20049;-59
2021/06/27 17:00:37;;;;;;;9.77;4.37;;;;;;;;;;5017524;28;20345;-59
2021/06/27 17:03:04;;;;;;;11.85;4.40;;;;;;;;;;5016222;28;20855;-59
2021/06/27 17:05:31;;;;;;;11.37;5.00;;;;;;;;;;5022134;28;20064;-59
2021/06/27 17:07:59;;;;;;;11.27;4.60;;;;;;;;;;5019644;28;20105;-59
2021/06/27 17:10:27;;;;;;;13.80;5.07;;;;;;;;;;5017966;28;20563;-59
2021/06/27 17:12:57;;;;;;;11.75;4.38;;;;;;;;;;5016427;28;20501;-59
2021/06/27 17:15:24;;;;;;;8.43;4.75;;;;;;;;;;5023735;28;20069;-59
2021/06/27 17:17:51;;;;;;;9.95;4.80;;;;;;;;;;5025913;28;20042;-59
2021/06/27 17:20:18;;;;;;;12.47;4.30;;;;;;;;;;5020669;28;20041;-59
2021/06/27 17:22:45;;;;;;;11.80;4.80;;;;;;;;;;5020011;28;20042;-60
2021/06/27 17:25:13;;;;;;;12.57;4.55;;;;;;;;;;5026325;28;20049;-59
2021/06/27 17:27:39;;;;;;;;;;;;;;;;;;5017077;28;20679;-59
2021/06/27 17:30:07;;;;;;;10.32;4.63;;;;;;;;;;5017090;28;20373;-59
2021/06/27 17:32:44;;;;;;;11.10;4.63;;;;;;;;;;5011206;28;20044;-60
2021/06/27 17:35:11;;;;;;;10.93;4.88;;;;;;;;;;5015425;28;20048;-60
2021/06/27 17:37:39;;;;;;;13.73;4.47;;;;;;;;;;5015425;28;20041;-59
2021/06/27 17:40:10;;;;;;;15.10;5.07;;;;;;;;;;5014709;28;20049;-59
2021/06/27 17:42:37;;;;;;;10.02;5.50;;;;;;;;;;5016373;28;20050;-60
2021/06/27 17:45:04;;;;;;;11.53;4.90;;;;;;;;;;5022316;28;20111;-59
2021/06/27 17:47:31;;;;;;;16.52;5.75;;;;;;;;;;5016233;28;20053;-59
2021/06/27 17:49:58;;;;;;;13.82;5.53;;;;;;;;;;5014461;28;20045;-60
2021/06/27 17:52:27;;;;;;;16.77;5.90;;;;;;;;;;5011664;28;20049;-59
2021/06/27 17:54:55;;;;;;;15.48;5.22;;;;;;;;;;5018271;28;20053;-59
2021/06/27 17:57:22;;;;;;;17.45;5.35;;;;;;;;;;5013163;28;20045;-60
2021/06/27 17:59:49;;;;;;;19.08;5.63;;;;;;;;;;5009829;28;20409;-59
2021/06/27 18:02:15;;;;;;;16.17;5.63;;;;;;;;;;5012954;28;20037;-60
2021/06/27 18:04:42;;;;;;;22.17;6.33;;;;;;;;;;5016258;28;20058;-59
2021/06/27 18:07:08;;;;;;;18.83;6.43;;;;;;;;;;5014731;28;20284;-59
2021/06/27 18:09:35;;;;;;;13.93;5.45;;;;;;;;;;5017151;28;20576;-59
2021/06/27 18:12:03;;;;;;;17.75;6.35;;;;;;;;;;5014440;28;20045;-59
2021/06/27 18:14:30;;;;;;;19.40;6.28;;;;;;;;;;5016182;28;20053;-59
2021/06/27 18:16:56;;;;;;;11.40;6.03;;;;;;;;;;5021771;28;20045;-59
2021/06/27 18:19:23;;;;;;;12.25;5.88;;;;;;;;;;5018532;28;20045;-60
2021/06/27 18:21:49;;;;;;;15.85;5.78;;;;;;;;;;5018328;28;20053;-59
2021/06/27 18:24:17;;;;;;;;;;;;;;;;;;5023296;28;20049;-60
2021/06/27 18:26:43;;;;;;;13.40;6.50;;;;;;;;;;5017570;28;19931;-59
2021/06/27 18:29:10;;;;;;;15.77;6.47;;;;;;;;;;5022185;28;20543;-59
2021/06/27 18:31:36;;;;;;;17.38;5.95;;;;;;;;;;5020911;28;20045;-59
2021/06/27 18:34:04;;;;;;;18.27;6.30;;;;;;;;;;5020001;28;20053;-60
2021/06/27 18:36:30;;;;;;;15.25;6.85;;;;;;;;;;5016679;28;20048;-59
2021/06/27 18:38:57;;;;;;;13.85;5.60;;;;;;;;;;5023175;28;20401;-59
2021/06/27 18:41:24;;;;;;;15.73;5.93;;;;;;;;;;5018383;28;20049;-59
2021/06/27 18:43:51;;;;;;;14.55;6.07;;;;;;;;;;5019676;28;20057;-59
2021/06/27 18:46:19;;;;;;;15.68;5.45;;;;;;;;;;5019953;28;20052;-59
2021/06/27 18:48:46;;;;;;;16.75;6.63;;;;;;;;;;5023072;28;20050;-59
2021/06/27 18:51:12;;;;;;;17.27;5.95;;;;;;;;;;5019490;28;20029;-60
2021/06/27 18:53:39;;;;;;;13.63;5.82;;;;;;;;;;5023624;28;20073;-59
2021/06/27 18:56:06;;;;;;;14.98;6.72;;;;;;;;;;5012944;28;20045;-59
2021/06/27 18:58:37;;;;;;;18.60;5.95;;;;;;;;;;5017632;28;20111;-59
2021/06/27 19:01:04;;;;;;;16.55;5.78;;;;;;;;;;5021582;28;20465;-59
2021/06/27 19:03:31;;;;;;;18.55;6.10;;;;;;;;;;5016831;28;20161;-59
2021/06/27 19:05:58;;;;;;;18.52;6.30;;;;;;;;;;5019099;28;20050;-60
2021/06/27 19:08:25;;;;;;;13.70;6.00;;;;;;;;;;5019239;28;20049;-59
2021/06/27 19:10:51;;;;;;;15.95;5.90;;;;;;;;;;5018966;28;20056;-59
2021/06/27 19:13:19;;;;;;;15.70;5.73;;;;;;;;;;5021033;28;21037;-59
2021/06/27 19:15:46;;;;;;;18.77;6.70;;;;;;;;;;5017046;28;20041;-59
2021/06/27 19:18:13;;;;;;;15.10;6.35;;;;;;;;;;5015381;28;20060;-59
2021/06/27 19:20:41;;;;;;;17.42;5.95;;;;;;;;;;5020649;28;20046;-59
2021/06/27 19:23:07;;;;;;;12.32;5.95;;;;;;;;;;5021807;28;20042;-59
2021/06/27 19:25:36;;;;;;;15.68;6.43;;;;;;;;;;5017899;28;20140;-59
2021/06/27 19:30:33;;;;;;;13.13;6.18;;;;;;;;;;5081296;27;20434;-61
2021/06/27 19:33:01;;;;;;;16.50;6.35;;;;;;;;;;5058857;28;20041;-61
2021/06/27 19:35:28;;;;;;;19.77;6.28;;;;;;;;;;5059455;28;20048;-61
2021/06/27 19:37:54;;;;;;;20.17;6.22;;;;;;;;;;5060530;28;20118;-61
2021/06/27 19:40:21;;;;;;;16.13;6.22;;;;;;;;;;5062776;28;20041;-61
2021/06/27 19:42:47;;;;;;;16.92;6.80;;;;;;;;;;5057481;28;20041;-61
2021/06/27 19:45:15;;;;;;;15.40;6.22;;;;;;;;;;5062379;28;20407;-61
2021/06/27 19:47:42;;;;;;;15.63;6.07;;;;;;;;;;5059822;28;20094;-61
2021/06/27 19:50:09;;;;;;;23.83;7.20;;;;;;;;;;5060334;28;20405;-61
2021/06/27 20:31:34;;;;;;;17.88;7.75;;;;;;;;;;5027683;27;20512;-60
2021/06/27 20:34:01;;;;;;;20.02;6.80;;;;;;;;;;5032791;27;20049;-60
2021/06/27 20:36:28;;;;;;;23.50;8.23;;;;;;;;;;5032577;28;20041;-61
2021/06/27 20:38:54;;;;;;;20.75;8.18;;;;;;;;;;5029492;27;20459;-61
2021/06/27 20:41:22;;;;;;;21.27;8.52;;;;;;;;;;5028923;27;20582;-61
2021/06/27 20:43:48;;;;;;;22.80;8.68;;;;;;;;;;5039547;27;20507;-61
2021/06/27 20:46:15;;;;;;;20.02;7.47;;;;;;;;;;5029977;27;20162;-61
2021/06/27 20:48:47;;;;;;;22.17;7.85;;;;;;;;;;5029792;28;20060;-61
2021/06/27 20:51:14;;;;;;;17.13;7.97;;;;;;;;;;5031072;28;20052;-61
2021/06/27 20:53:41;;;;;;;16.63;7.72;;;;;;;;;;5030699;28;20037;-60
2021/06/27 20:56:11;;;;;;;19.42;7.82;;;;;;;;;;5036744;28;20405;-61
2021/06/27 20:58:39;;;;;;;17.13;7.68;;;;;;;;;;5036031;28;20048;-61
2021/06/27 21:01:05;;;;;;;17.75;8.07;;;;;;;;;;5031150;27;20042;-61
2021/06/27 21:03:33;;;;;;;23.90;8.38;;;;;;;;;;5029176;28;20049;-61
2021/06/27 21:06:00;;;;;;;;;;;;;;;;;;5032712;28;20049;-61
2021/06/27 21:08:26;;;;;;;20.05;8.93;;;;;;;;;;5028849;27;19921;-61
2021/06/27 21:10:53;;;;;;;22.52;8.55;;;;;;;;;;5032442;28;20042;-61
2021/06/27 21:13:20;;;;;;;15.55;7.82;;;;;;;;;;5030213;27;20048;-61
2021/06/27 21:15:46;;;;;;;21.37;8.60;;;;;;;;;;5027752;28;20106;-61
2021/06/27 21:18:13;;;;;;;24.27;8.05;;;;;;;;;;5033220;28;20841;-61
2021/06/27 21:20:40;;;;;;;18.27;8.40;;;;;;;;;;5033766;28;20124;-61
2021/06/27 21:23:07;;;;;;;20.37;8.10;;;;;;;;;;5028731;27;20436;-61
2021/06/27 21:25:33;;;;;;;17.92;7.97;;;;;;;;;;5029878;28;20386;-61
2021/06/27 21:28:01;;;;;;;15.73;8.10;;;;;;;;;;5025554;28;20061;-61
2021/06/27 21:30:28;;;;;;;22.77;8.70;;;;;;;;;;5030268;28;20049;-61
2021/06/27 21:32:55;;;;;;;19.90;8.30;;;;;;;;;;5031075;28;20668;-61
2021/06/27 21:35:22;;;;;;;17.45;8.32;;;;;;;;;;5029425;28;20045;-61
2021/06/27 21:37:48;;;;;;;17.57;8.57;;;;;;;;;;5031302;28;20048;-61
2021/06/27 21:40:15;;;;;;;17.73;8.15;;;;;;;;;;5033001;27;20041;-61
2021/06/27 21:42:44;;;;;;;17.90;8.13;;;;;;;;;;5018200;28;20523;-61
2021/06/27 21:45:12;;;;;;;18.25;8.48;;;;;;;;;;5018429;28;20046;-61
2021/06/27 21:47:42;;;;;;;18.50;8.60;;;;;;;;;;5013658;28;20086;-61
2021/06/27 21:50:10;;;;;;;21.23;7.75;;;;;;;;;;5014198;28;20089;-61
2021/06/27 22:22:36;;;;;;;20.52;8.95;;;;;;;;;;5048494;28;20644;-60
2021/06/27 22:25:04;;;;;;;18.75;9.82;;;;;;;;;;5044096;28;20041;-61
2021/06/27 22:27:30;;;;;;;;;;;;;;;;;;5041152;28;20155;-61
2021/06/27 22:29:57;;;;;;;18.77;9.95;;;;;;;;;;5047984;28;19983;-61
2021/06/27 23:22:35;;;;;;;18.35;11.80;;;;;;;;;;5055490;28;20668;-61
2021/06/27 23:25:02;;;;;;;21.30;12.63;;;;;;;;;;5039708;28;20045;-61
